Terminal Aerodrome Forecast
Issued by NWS Atlanta, GA

Home | Current Version | Previous Version | Text Only | Print | Product List | Glossary On
Versions: 1 2 3 4 5 6 7 8 9 10 11 12 13 14 15 16 17 18 19
000
FTUS42 KFFC 201733
TAFCSG
TAF
KCSG 201733Z 2018/2118 09005KT 5SM BR OVC007
     FM202000 08005KT P6SM OVC015
     FM210600 06004KT 6SM BR OVC015
     FM211000 06004KT 4SM BR OVC005
     FM211700 08006KT P6SM OVC015=

USA.gov is the U.S. government's official web portal to all federal, state and local government web resources and services.